Melbourne, FL

1:24 PM EDT on March 31, 2015 (GMT -0400)
Timber Ridge | | Change Station
CLOSE
Current Station
Personal Weather Station
Location: West Melbourne, FL
Elevation: 33 ft
Nearby Weather Stations

Elev 33 ft 28.07 °N, 80.65 °W | Updated 6 minutes ago

Mostly Cloudy
Mostly Cloudy
76.3 °F
Feels Like 78 °F
N
0.0
Wind Variable Wind from NNE
Gusts 8.0 mph

Today
High -- | Low -- °F
--% Chance of Precip.
Yesterday
High -- | Low -- °F
Precip. -- in
7:14 AM 7:39 PM
Waxing Gibbous, 88% visible
Pressure 30.14 in
Visibility 10.0 miles
Clouds Scattered Clouds 3500 ft
Mostly Cloudy 4600 ft
Heat Index 78 °F
Dew Point 60 °F
Humidity 57%
Rainfall 0.00 in
Snow Depth Not available.
UV 7 out of 12
Pollen 10.60 out of 12
Air Quality Not available.
Flu Activity Not available.
METAR KMLB 311653Z 00000KT 10SM SCT035 BKN046 24/16 A3014 RMK AO2 SLP207 T02440156

More Conditions Fewer Conditions

Pressure 30.14 in
Visibility 10.0 miles
Clouds Scattered Clouds 3500 ft
Mostly Cloudy 4600 ft
Heat Index 78 °F
Dew Point 60 °F
Humidity 57%
Rainfall 0.00 in
Snow Depth Not available.
UV 7 out of 12
Pollen 10.60 out of 12
Air Quality Not available.
Flu Activity Not available.
METAR KMLB 311653Z 00000KT 10SM SCT035 BKN046 24/16 A3014 RMK AO2 SLP207 T02440156

More Conditions Fewer Conditions

Nowcast | as of 1:01 PM EDT on March 31, 2015

developing sea breeze... A developing Atlantic coast sea breeze will nudge very slowly inland this afternoon as temperatures climb into the lower 80s inland and reach the upper 70s along the coast. Light west winds will become variable...then shift to east behind the sea breeze. A few isolated showers may develop near the sea breeze late this afternoon. Additional details...including graphics are available online at: http://www.Srh.NOAA.Gov/mlb/blog.Php

×

10-Day Weather Forecast

Almanac

Astronomy

Mar. 31, 2015 Rise Set
Actual Time
Civil Twilight
Nautical Twilight
Astronomical Twilight
Moon
Length of Visible Light
Length of Day
Tomorrow will be .
, % of the Moon is Illuminated

Today's Extremes

State Highs State Lows

Community

WunderPhotos

Upload Photos

1,809,787 photos uploaded!

WunderBlogs® & News

Nearby

Air Quality

  Air Quality AQ Index Pollutant
Not available.

Snow Depth

Station Depth Elevation

Earthquake Activity

City Distance Mag. Time & Date
Minimum magnitude displayed is 2.5.

Coastal Water Temperatures

Place Temperature

Stations

Nearby Weather Stations

Station Location Temp. Windchill Dew Point Humidity Wind Precip. Elev Updated Type